createdAt,value
2017-11-28T00:00:08.557Z,4.13
2017-11-28T00:01:19.475Z,4.18
2017-11-28T00:02:29.579Z,4.15
2017-11-28T00:03:40.157Z,4.09
2017-11-28T00:04:50.563Z,4.2
2017-11-28T00:06:00.983Z,4.12
2017-11-28T00:07:11.481Z,4.08
2017-11-28T00:08:21.862Z,4.12
2017-11-28T00:09:31.836Z,4.18
2017-11-28T00:10:42.157Z,4.19
2017-11-28T00:11:52.494Z,4.12
2017-11-28T00:13:02.768Z,4.22
2017-11-28T00:14:13.290Z,4.22
2017-11-28T00:15:23.660Z,4.12
2017-11-28T00:16:33.936Z,4.18
2017-11-28T00:17:44.033Z,4.18
2017-11-28T00:18:54.363Z,4.18
2017-11-28T00:20:04.685Z,4.13
2017-11-28T00:21:15.068Z,4.22
2017-11-28T00:22:25.080Z,4.15
2017-11-28T00:23:35.548Z,4.2
2017-11-28T00:24:45.841Z,4.13
2017-11-28T00:25:56.142Z,4.2
2017-11-28T00:27:06.519Z,4.28
2017-11-28T00:28:17.139Z,4.28
2017-11-28T00:29:27.421Z,4.2
2017-11-28T00:30:37.923Z,4.2
2017-11-28T00:31:48.215Z,4.25
2017-11-28T00:32:58.238Z,4.18
2017-11-28T00:34:08.861Z,4.2
2017-11-28T00:35:18.871Z,4.27
2017-11-28T00:36:29.404Z,4.25
2017-11-28T00:38:12.001Z,4.19
2017-11-28T00:39:22.523Z,4.2
2017-11-28T00:40:33.021Z,4.16
2017-11-28T00:41:43.515Z,4.23
2017-11-28T00:42:54.023Z,4.22
2017-11-28T00:44:04.075Z,4.2
2017-11-28T00:45:14.428Z,4.25
2017-11-28T00:46:24.976Z,4.19
2017-11-28T00:47:35.286Z,4.23
2017-11-28T00:48:45.500Z,4.27
2017-11-28T00:49:57.258Z,4.18
2017-11-28T00:51:07.243Z,4.27
2017-11-28T00:52:17.664Z,4.27
2017-11-28T00:53:28.160Z,4.2
2017-11-28T00:54:38.681Z,4.23
2017-11-28T00:55:49.009Z,4.31
2017-11-28T00:56:59.295Z,4.31
2017-11-28T00:58:09.987Z,4.31
2017-11-28T00:59:20.232Z,4.25
2017-11-28T01:00:30.197Z,4.31
2017-11-28T01:01:40.804Z,4.23
2017-11-28T01:02:51.086Z,4.2
2017-11-28T01:04:01.585Z,4.2
2017-11-28T01:05:11.817Z,4.22
2017-11-28T01:06:21.815Z,4.28
2017-11-28T01:07:32.357Z,4.23
2017-11-28T01:08:42.868Z,4.2
2017-11-28T01:09:53.312Z,4.23
2017-11-28T01:11:03.580Z,4.34
2017-11-28T01:12:14.245Z,4.36
2017-11-28T01:13:24.718Z,4.33
2017-11-28T01:14:35.231Z,4.31
2017-11-28T01:15:45.825Z,4.3
2017-11-28T01:16:56.188Z,4.31
2017-11-28T01:18:06.824Z,4.34
2017-11-28T01:19:17.348Z,4.34
2017-11-28T01:20:27.664Z,4.36
2017-11-28T01:21:38.151Z,4.33
2017-11-28T01:22:48.416Z,4.2
2017-11-28T01:23:58.707Z,4.3
2017-11-28T01:25:09.514Z,4.27
2017-11-28T01:26:19.469Z,4.33
2017-11-28T01:27:29.803Z,4.31
2017-11-28T01:28:40.492Z,4.18
2017-11-28T01:29:50.715Z,4.23
2017-11-28T01:31:00.974Z,4.25
2017-11-28T01:32:12.274Z,4.22
2017-11-28T01:33:22.978Z,4.27
2017-11-28T01:34:33.449Z,4.28
2017-11-28T01:35:44.158Z,4.2
2017-11-28T01:36:55.096Z,4.2
2017-11-28T01:38:05.579Z,4.23
2017-11-28T01:39:16.510Z,4.23
2017-11-28T01:40:26.834Z,4.25
2017-11-28T01:41:37.115Z,4.2
2017-11-28T01:42:47.399Z,4.16
2017-11-28T01:43:58.005Z,4.25
2017-11-28T01:45:08.316Z,4.23
2017-11-28T01:46:18.910Z,4.22
2017-11-28T01:47:29.225Z,4.27
2017-11-28T01:48:39.696Z,4.22
2017-11-28T01:49:50.063Z,4.16
2017-11-28T01:51:00.607Z,4.23
2017-11-28T01:52:11.472Z,4.2
2017-11-28T01:53:21.501Z,4.23
2017-11-28T01:54:31.786Z,4.18
2017-11-28T01:55:42.224Z,4.22
2017-11-28T01:56:52.727Z,4.25
2017-11-28T01:58:03.430Z,4.11
2017-11-28T01:59:13.887Z,4.19
2017-11-28T02:00:24.596Z,4.16
2017-11-28T02:01:35.902Z,4.25
2017-11-28T02:02:46.453Z,4.15
2017-11-28T02:03:57.005Z,4.22
2017-11-28T02:05:07.386Z,4.18
2017-11-28T02:06:17.881Z,4.23
2017-11-28T02:07:28.303Z,4.16
2017-11-28T02:08:39.025Z,4.22
2017-11-28T02:09:49.528Z,4.11
2017-11-28T02:10:59.799Z,4.2
2017-11-28T02:12:09.830Z,4.15
2017-11-28T02:13:20.146Z,4.27
2017-11-28T02:14:30.689Z,4.18
2017-11-28T02:15:40.960Z,4.23
2017-11-28T02:16:50.611Z,4.13
2017-11-28T02:18:00.894Z,4.23
2017-11-28T02:19:11.230Z,4.2
2017-11-28T02:20:21.310Z,4.22
2017-11-28T02:21:31.220Z,4.22
2017-11-28T02:22:41.048Z,4.19
2017-11-28T02:23:51.563Z,4.2
2017-11-28T02:25:01.875Z,4.18
2017-11-28T02:26:12.147Z,4.23
2017-11-28T02:27:22.485Z,4.13
2017-11-28T02:28:32.831Z,4.22
2017-11-28T02:29:43.129Z,4.22
2017-11-28T02:30:53.432Z,4.16
2017-11-28T02:32:03.482Z,4.15
2017-11-28T02:33:13.981Z,4.19
2017-11-28T02:34:24.141Z,4.2
2017-11-28T02:35:34.416Z,4.16
2017-11-28T02:36:44.914Z,4.12
2017-11-28T02:37:55.021Z,4.23
2017-11-28T02:39:05.312Z,4.09
2017-11-28T02:40:15.771Z,4.09
2017-11-28T02:41:26.091Z,4.2
2017-11-28T02:42:36.404Z,4.04
2017-11-28T02:43:46.809Z,4.16
2017-11-28T02:44:57.129Z,4.11
2017-11-28T02:46:07.459Z,4.11
2017-11-28T02:47:17.907Z,4.22
2017-11-28T02:48:27.952Z,4.2
2017-11-28T02:49:37.649Z,4.13
2017-11-28T02:50:47.940Z,4.11
2017-11-28T02:51:58.270Z,4.18
2017-11-28T02:53:08.259Z,4.18
2017-11-28T02:54:18.285Z,4.19
2017-11-28T02:55:28.250Z,4.19
2017-11-28T02:56:38.574Z,4.22
2017-11-28T02:57:48.586Z,4.25
2017-11-28T02:58:58.859Z,4.2
2017-11-28T03:00:09.117Z,4.2
2017-11-28T03:01:19.510Z,4.28
2017-11-28T03:02:29.916Z,4.25
2017-11-28T03:03:40.229Z,4.23
2017-11-28T03:04:50.546Z,4.18
2017-11-28T03:06:01.131Z,4.3
2017-11-28T03:07:11.372Z,4.23
2017-11-28T03:08:21.553Z,4.28
2017-11-28T03:09:31.166Z,4.23
2017-11-28T03:10:41.437Z,4.28
2017-11-28T03:11:51.732Z,4.27
2017-11-28T03:13:02.023Z,4.23
2017-11-28T03:14:11.954Z,4.23
2017-11-28T03:15:21.994Z,4.2
2017-11-28T03:16:32.417Z,4.34
2017-11-28T03:17:42.731Z,4.28
2017-11-28T03:18:53.232Z,4.2
2017-11-28T03:20:03.519Z,4.2
2017-11-28T03:21:14.049Z,4.13
2017-11-28T03:22:23.941Z,4.22
2017-11-28T03:23:34.272Z,4.23
2017-11-28T03:24:43.628Z,4.23
2017-11-28T03:25:53.257Z,4.18
2017-11-28T03:27:03.520Z,4.09
2017-11-28T03:28:13.480Z,4.13
2017-11-28T03:29:23.922Z,4.16
2017-11-28T03:30:34.219Z,4.18
2017-11-28T03:31:44.526Z,4.12
2017-11-28T03:32:54.862Z,4.13
2017-11-28T03:34:04.918Z,4.15
2017-11-28T03:35:14.399Z,4.12
2017-11-28T03:36:24.427Z,4.09
2017-11-28T03:37:34.720Z,4.15
2017-11-28T03:38:45.125Z,4.15
2017-11-28T03:39:55.471Z,4.05
2017-11-28T03:41:05.809Z,4.18
2017-11-28T03:42:16.095Z,4.16
2017-11-28T03:43:26.653Z,4.16
2017-11-28T03:44:36.780Z,4.11
2017-11-28T03:45:46.794Z,4.09
2017-11-28T03:46:56.471Z,4.04
2017-11-28T03:48:06.719Z,4.18
2017-11-28T03:49:17.149Z,4.13
2017-11-28T03:50:27.460Z,4.04
2017-11-28T03:51:37.736Z,4.08
2017-11-28T03:52:48.036Z,4.08
2017-11-28T03:53:58.344Z,4.11
2017-11-28T03:55:08.470Z,4.09
2017-11-28T03:56:18.754Z,4.08
2017-11-28T03:57:29.025Z,4.19
2017-11-28T03:58:39.137Z,4.13
2017-11-28T03:59:49.472Z,4.03
2017-11-28T04:00:59.450Z,4.13
2017-11-28T04:02:09.717Z,4.15
2017-11-28T04:03:19.850Z,4.01
2017-11-28T04:04:30.146Z,4.09
2017-11-28T04:05:40.776Z,4.12
2017-11-28T04:06:51.050Z,4.09
2017-11-28T04:08:01.328Z,4
2017-11-28T04:09:11.643Z,4.12
2017-11-28T04:10:21.995Z,4.08
2017-11-28T04:11:32.326Z,4.05
2017-11-28T04:12:43.097Z,4.03
2017-11-28T04:13:53.148Z,4.04
2017-11-28T04:15:03.166Z,4.01
2017-11-28T04:16:13.487Z,3.98
2017-11-28T04:17:23.522Z,4.05
2017-11-28T04:18:33.798Z,4.04
2017-11-28T04:19:44.065Z,4.08
2017-11-28T04:20:54.345Z,4.03
2017-11-28T04:22:04.636Z,4
2017-11-28T04:23:15.279Z,4.13
2017-11-28T04:24:25.559Z,3.97
2017-11-28T04:25:35.448Z,4.04
2017-11-28T04:26:45.775Z,4.03
2017-11-28T04:27:55.781Z,4
2017-11-28T04:29:05.944Z,4
2017-11-28T04:30:16.215Z,3.9
2017-11-28T04:31:26.854Z,3.95
2017-11-28T04:32:37.332Z,3.98
2017-11-28T04:33:47.655Z,3.9
2017-11-28T04:34:57.990Z,3.87
2017-11-28T04:36:08.260Z,3.86
2017-11-28T04:37:18.815Z,3.95
2017-11-28T04:38:28.552Z,3.85
2017-11-28T04:39:38.839Z,3.97
2017-11-28T04:40:49.045Z,3.98
2017-11-28T04:41:59.138Z,4
2017-11-28T04:43:09.621Z,4.04
2017-11-28T04:44:19.936Z,3.98
2017-11-28T04:45:30.230Z,4.04
2017-11-28T04:46:40.569Z,4
2017-11-28T04:47:50.859Z,3.87
2017-11-28T04:49:00.968Z,4.01
2017-11-28T04:50:11.269Z,3.91
2017-11-28T04:51:21.567Z,3.93
2017-11-28T04:52:31.868Z,3.94
2017-11-28T04:53:42.158Z,3.87
2017-11-28T04:54:52.582Z,3.85
2017-11-28T04:56:02.317Z,3.85
2017-11-28T04:57:12.606Z,3.91
2017-11-28T04:58:22.925Z,3.9
2017-11-28T04:59:33.273Z,3.97
2017-11-28T05:00:43.274Z,3.97
2017-11-28T05:01:53.601Z,3.93
2017-11-28T05:03:03.934Z,4.03
2017-11-28T05:04:13.524Z,3.9
2017-11-28T05:05:23.791Z,3.98
2017-11-28T05:06:33.825Z,3.94
2017-11-28T05:07:43.824Z,4.03
2017-11-28T05:08:53.567Z,3.93
2017-11-28T05:10:03.580Z,3.95
2017-11-28T05:11:13.604Z,3.91
2017-11-28T05:12:24.100Z,3.91
2017-11-28T05:13:34.396Z,3.94
2017-11-28T05:14:44.841Z,3.9
2017-11-28T05:15:54.576Z,3.8
2017-11-28T05:17:05.143Z,3.77
2017-11-28T05:18:15.550Z,3.85
2017-11-28T05:19:25.839Z,3.8
2017-11-28T05:20:36.143Z,3.73
2017-11-28T05:21:46.421Z,3.77
2017-11-28T05:22:56.699Z,3.72
2017-11-28T05:24:06.997Z,3.72
2017-11-28T05:25:17.275Z,3.68
2017-11-28T05:26:27.351Z,3.68
2017-11-28T05:27:37.629Z,3.67
2017-11-28T05:28:47.940Z,3.73
2017-11-28T05:29:58.232Z,3.67
2017-11-28T05:31:08.199Z,3.65
2017-11-28T05:32:18.489Z,3.72
2017-11-28T05:33:28.762Z,3.69
2017-11-28T05:34:39.130Z,3.65
2017-11-28T05:35:49.630Z,3.64
2017-11-28T05:36:59.942Z,3.72
2017-11-28T05:38:10.035Z,3.61
2017-11-28T05:39:20.359Z,3.67
2017-11-28T05:40:30.846Z,3.68
2017-11-28T05:41:41.143Z,3.73
2017-11-28T05:42:51.425Z,3.67
2017-11-28T05:44:01.781Z,3.75
2017-11-28T05:45:12.075Z,3.69
2017-11-28T05:46:22.074Z,3.68
2017-11-28T05:47:33.015Z,3.65
2017-11-28T05:48:43.286Z,3.72
2017-11-28T05:49:53.274Z,3.72
2017-11-28T05:51:03.561Z,3.68
2017-11-28T05:52:13.892Z,3.67
2017-11-28T05:53:24.197Z,3.69
2017-11-28T05:54:34.463Z,3.73
2017-11-28T05:55:44.824Z,3.67
2017-11-28T05:56:55.133Z,3.72
2017-11-28T05:58:04.766Z,3.67
2017-11-28T05:59:15.183Z,3.68
2017-11-28T06:00:25.922Z,3.65
2017-11-28T06:01:35.554Z,3.75
2017-11-28T06:02:46.012Z,3.69
2017-11-28T06:03:56.067Z,3.65
2017-11-28T06:05:06.434Z,3.67
2017-11-28T06:06:16.717Z,3.65
2017-11-28T06:07:26.778Z,3.61
2017-11-28T06:08:37.102Z,3.68
2017-11-28T06:09:47.418Z,3.72
2017-11-28T06:10:57.445Z,3.68
2017-11-28T06:12:08.506Z,3.58
2017-11-28T06:13:19.006Z,3.55
2017-11-28T06:14:29.301Z,3.59
2017-11-28T06:15:39.408Z,3.59
2017-11-28T06:16:49.935Z,3.54
2017-11-28T06:18:00.264Z,3.52
2017-11-28T06:19:10.573Z,3.62
2017-11-28T06:20:20.606Z,3.55
2017-11-28T06:21:30.779Z,3.67
2017-11-28T06:22:41.182Z,3.57
2017-11-28T06:23:51.480Z,3.59
2017-11-28T06:25:01.975Z,3.61
2017-11-28T06:26:11.622Z,3.54
2017-11-28T06:27:21.694Z,3.67
2017-11-28T06:28:31.346Z,3.69
2017-11-28T06:29:41.463Z,3.75
2017-11-28T06:30:51.782Z,3.77
2017-11-28T06:32:01.812Z,3.73
2017-11-28T06:33:12.090Z,3.64
2017-11-28T06:34:22.380Z,3.61
2017-11-28T06:35:32.382Z,3.65
2017-11-28T06:36:42.391Z,3.68
2017-11-28T06:37:52.744Z,3.69
2017-11-28T06:39:03.094Z,3.73
2017-11-28T06:40:13.180Z,3.61
2017-11-28T06:41:23.456Z,3.68
2017-11-28T06:42:33.508Z,3.68
2017-11-28T06:43:43.431Z,3.61
2017-11-28T06:44:53.787Z,3.73
2017-11-28T06:46:04.233Z,3.73
2017-11-28T06:47:14.463Z,3.64
2017-11-28T06:48:24.661Z,3.58
2017-11-28T06:49:34.689Z,3.73
2017-11-28T06:50:44.729Z,3.67
2017-11-28T06:51:55.017Z,3.72
2017-11-28T06:53:05.033Z,3.67
2017-11-28T06:54:15.303Z,3.76
2017-11-28T06:55:25.561Z,3.68
2017-11-28T06:56:35.898Z,3.68
2017-11-28T06:57:45.865Z,3.73
2017-11-28T06:58:55.644Z,3.79
2017-11-28T07:00:05.565Z,3.75
2017-11-28T07:01:16.106Z,3.73
2017-11-28T07:02:26.036Z,3.77
2017-11-28T07:03:35.982Z,3.76
2017-11-28T07:04:46.268Z,3.83
2017-11-28T07:05:56.566Z,3.76
2017-11-28T07:07:06.892Z,3.8
2017-11-28T07:08:17.170Z,3.83
2017-11-28T07:09:27.235Z,3.77
2017-11-28T07:10:37.295Z,3.83
2017-11-28T07:11:47.504Z,3.8
2017-11-28T07:12:57.781Z,3.79
2017-11-28T07:14:07.872Z,3.83
2017-11-28T07:15:18.197Z,3.79
2017-11-28T07:16:28.508Z,3.77
2017-11-28T07:17:38.570Z,3.82
2017-11-28T07:18:48.974Z,3.85
2017-11-28T07:19:58.958Z,3.79
2017-11-28T07:21:09.219Z,3.77
2017-11-28T07:22:19.764Z,3.76
2017-11-28T07:23:30.063Z,3.83
2017-11-28T07:24:39.864Z,3.85
2017-11-28T07:25:50.180Z,3.79
2017-11-28T07:27:00.448Z,3.83
2017-11-28T07:28:10.823Z,3.82
2017-11-28T07:29:20.889Z,3.87
2017-11-28T07:30:30.792Z,3.85
2017-11-28T07:31:41.148Z,3.77
2017-11-28T07:32:51.463Z,3.86
2017-11-28T07:34:01.991Z,3.85
2017-11-28T07:35:12.322Z,3.8
2017-11-28T07:36:22.781Z,3.82
2017-11-28T07:37:33.120Z,3.83
2017-11-28T07:38:43.451Z,3.86
2017-11-28T07:39:53.817Z,3.83
2017-11-28T07:41:04.136Z,3.85
2017-11-28T07:42:14.443Z,3.87
2017-11-28T07:43:24.741Z,3.87
2017-11-28T07:44:34.776Z,3.8
2017-11-28T07:45:44.803Z,3.86
2017-11-28T07:46:55.456Z,3.85
2017-11-28T07:48:05.855Z,3.77
2017-11-28T07:49:16.165Z,3.86
2017-11-28T07:50:26.218Z,3.8
2017-11-28T07:51:36.612Z,3.79
2017-11-28T07:52:46.663Z,3.75
2017-11-28T07:53:56.653Z,3.82
2017-11-28T07:55:07.293Z,3.83
2017-11-28T07:56:17.565Z,3.8
2017-11-28T07:57:27.909Z,3.82
2017-11-28T07:58:37.954Z,3.85
2017-11-28T07:59:48.470Z,3.87
2017-11-28T08:00:58.491Z,3.93
2017-11-28T08:02:08.670Z,3.94
2017-11-28T08:03:18.955Z,4
2017-11-28T08:04:29.245Z,3.91
2017-11-28T08:05:39.287Z,3.93
2017-11-28T08:06:49.291Z,3.94
2017-11-28T08:07:59.817Z,4.05
2017-11-28T08:09:09.484Z,4.08
2017-11-28T08:10:19.520Z,4.15
2017-11-28T08:11:29.796Z,4.15
2017-11-28T08:12:40.124Z,4.18
2017-11-28T08:13:50.439Z,4.2
2017-11-28T08:15:00.332Z,4.13
2017-11-28T08:16:10.920Z,4.12
2017-11-28T08:17:20.981Z,4.09
2017-11-28T08:18:31.275Z,4.2
2017-11-28T08:19:41.573Z,4.22
2017-11-28T08:20:51.898Z,4.15
2017-11-28T08:22:02.253Z,4.12
2017-11-28T08:23:12.605Z,4.2
2017-11-28T08:24:22.946Z,4.13
2017-11-28T08:25:33.218Z,4.08
2017-11-28T08:26:43.225Z,4.13
2017-11-28T08:27:53.571Z,4.04
2017-11-28T08:29:03.872Z,4.09
2017-11-28T08:30:14.134Z,4.13
2017-11-28T08:31:24.156Z,4.05
2017-11-28T08:32:34.478Z,4.03
2017-11-28T08:33:44.752Z,4.03
2017-11-28T08:34:55.042Z,4.08
2017-11-28T08:36:05.447Z,4.03
2017-11-28T08:37:15.723Z,4.09
2017-11-28T08:38:26.004Z,4.18
2017-11-28T08:39:36.352Z,4.08
2017-11-28T08:40:46.362Z,4.11
2017-11-28T08:41:56.375Z,4.15
2017-11-28T08:43:06.889Z,4.15
2017-11-28T08:44:17.323Z,4.15
2017-11-28T08:45:27.698Z,4.16
2017-11-28T08:46:38.023Z,4.22
2017-11-28T08:47:48.403Z,4.25
2017-11-28T08:48:58.740Z,4.2
2017-11-28T08:50:08.622Z,4.2
2017-11-28T08:51:19.060Z,4.16
2017-11-28T08:52:29.323Z,4.2
2017-11-28T08:53:39.082Z,4.25
2017-11-28T08:54:49.641Z,4.18
2017-11-28T08:55:59.699Z,4.2
2017-11-28T08:57:10.163Z,4.23
2017-11-28T08:58:20.454Z,4.19
2017-11-28T08:59:30.368Z,4.13
2017-11-28T09:00:40.876Z,4.22
2017-11-28T09:01:51.234Z,4.16
2017-11-28T09:03:01.554Z,4.22
2017-11-28T09:04:11.576Z,4.16
2017-11-28T09:05:22.014Z,4.23
2017-11-28T09:06:31.844Z,4.19
2017-11-28T09:07:42.134Z,4.27
2017-11-28T09:08:52.287Z,4.28
2017-11-28T09:10:02.295Z,4.34
2017-11-28T09:11:12.471Z,4.3
2017-11-28T09:12:22.730Z,4.34
2017-11-28T09:13:32.731Z,4.41
2017-11-28T09:14:42.991Z,4.43
2017-11-28T09:15:53.326Z,4.36
2017-11-28T09:17:03.432Z,4.46
2017-11-28T09:18:13.361Z,4.47
2017-11-28T09:19:23.698Z,4.4
2017-11-28T09:20:33.720Z,4.41
2017-11-28T09:21:44.025Z,4.47
2017-11-28T09:22:54.038Z,4.47
2017-11-28T09:24:04.395Z,4.49
2017-11-28T09:25:14.720Z,4.46
2017-11-28T09:26:25.091Z,4.53
2017-11-28T09:27:35.379Z,4.55
2017-11-28T09:28:45.676Z,4.52
2017-11-28T09:29:55.742Z,4.55
2017-11-28T09:31:05.947Z,4.6
2017-11-28T09:32:16.026Z,4.67
2017-11-28T09:33:25.793Z,4.52
2017-11-28T09:34:36.228Z,4.6
2017-11-28T09:35:45.964Z,4.53
2017-11-28T09:36:56.284Z,4.55
2017-11-28T09:38:06.672Z,4.67
2017-11-28T09:39:16.714Z,4.65
2017-11-28T09:40:26.996Z,4.59
2017-11-28T09:41:37.401Z,4.53
2017-11-28T09:42:47.414Z,4.56
2017-11-28T09:43:57.807Z,4.55
2017-11-28T09:45:07.829Z,4.53
2017-11-28T09:46:18.109Z,4.6
2017-11-28T09:47:28.698Z,4.52
2017-11-28T09:48:39.362Z,4.56
2017-11-28T09:49:49.408Z,4.53
2017-11-28T09:50:59.691Z,4.56
2017-11-28T09:52:09.972Z,4.53
2017-11-28T09:53:20.000Z,4.62
2017-11-28T09:54:30.345Z,4.7
2017-11-28T09:55:40.693Z,4.67
2017-11-28T09:56:51.000Z,4.57
2017-11-28T09:58:01.322Z,4.59
2017-11-28T09:59:11.741Z,4.7
2017-11-28T10:00:21.474Z,4.62
2017-11-28T10:01:31.790Z,4.71
2017-11-28T10:02:42.136Z,4.68
2017-11-28T10:03:52.394Z,4.8
2017-11-28T10:05:02.709Z,4.78
2017-11-28T10:06:13.189Z,4.74
2017-11-28T10:07:23.528Z,4.67
2017-11-28T10:08:33.847Z,4.78
2017-11-28T10:09:43.880Z,4.71
2017-11-28T10:10:54.438Z,4.67
2017-11-28T10:12:04.487Z,4.68
2017-11-28T10:13:14.957Z,4.71
2017-11-28T10:14:25.229Z,4.65
2017-11-28T10:15:35.496Z,4.68
2017-11-28T10:16:45.778Z,4.67
2017-11-28T10:17:56.094Z,4.77
2017-11-28T10:19:06.385Z,4.77
2017-11-28T10:20:16.914Z,4.81
2017-11-28T10:21:26.987Z,4.77
2017-11-28T10:22:37.276Z,4.95
2017-11-28T10:23:47.893Z,4.93
2017-11-28T10:24:58.240Z,4.92
2017-11-28T10:26:08.561Z,5.03
2017-11-28T10:27:18.591Z,5.14
2017-11-28T10:28:28.627Z,5.51
2017-11-28T10:29:38.668Z,5.9
2017-11-28T10:30:49.227Z,6.02
2017-11-28T10:31:59.016Z,6.19
2017-11-28T10:33:09.291Z,6.28
2017-11-28T10:34:19.590Z,6.34
2017-11-28T10:35:29.937Z,6.39
2017-11-28T10:36:40.307Z,6.46
2017-11-28T10:37:50.342Z,6.42
2017-11-28T10:39:00.486Z,6.48
2017-11-28T10:40:10.781Z,6.41
2017-11-28T10:41:21.323Z,6.57
2017-11-28T10:42:31.659Z,6.87
2017-11-28T10:43:42.032Z,6.9
2017-11-28T10:44:52.373Z,6.93
2017-11-28T10:46:02.743Z,6.97
2017-11-28T10:47:13.087Z,6.97
2017-11-28T10:48:23.014Z,7
2017-11-28T10:49:33.394Z,7.33
2017-11-28T10:50:43.680Z,7.84
2017-11-28T10:51:53.987Z,8.1
2017-11-28T10:53:04.399Z,8.74
2017-11-28T10:54:14.678Z,9.16
2017-11-28T10:55:25.010Z,9.27
2017-11-28T10:56:35.300Z,9.29
2017-11-28T10:57:45.240Z,9.3
2017-11-28T10:58:55.596Z,9.26
2017-11-28T11:00:05.919Z,9.11
2017-11-28T11:01:16.227Z,8.92
2017-11-28T11:02:26.535Z,8.61
2017-11-28T11:03:36.922Z,8.42
2017-11-28T11:04:46.950Z,7.99
2017-11-28T11:05:57.014Z,7.87
2017-11-28T11:07:07.646Z,7.58
2017-11-28T11:08:17.971Z,7.36
2017-11-28T11:09:27.987Z,7.08
2017-11-28T11:10:38.295Z,7.03
2017-11-28T11:11:48.652Z,6.82
2017-11-28T11:12:58.742Z,6.64
2017-11-28T11:14:08.785Z,6.54
2017-11-28T11:15:18.908Z,6.34
2017-11-28T11:16:30.019Z,6.3
2017-11-28T11:17:43.243Z,6.16
2017-11-28T11:18:55.021Z,6.05
2017-11-28T11:20:05.946Z,6.08
2017-11-28T11:21:16.263Z,5.98
2017-11-28T11:22:26.800Z,5.99
2017-11-28T11:23:37.602Z,5.91
2017-11-28T11:24:48.812Z,5.82
2017-11-28T11:26:00.623Z,5.79
2017-11-28T11:27:12.573Z,5.84
2017-11-28T11:28:23.120Z,5.98
2017-11-28T11:29:33.648Z,5.77
2017-11-28T11:30:44.324Z,5.75
2017-11-28T11:31:55.552Z,5.8
2017-11-28T11:33:06.103Z,5.9
2017-11-28T11:34:17.041Z,5.86
2017-11-28T11:35:27.975Z,5.72
2017-11-28T11:36:39.744Z,5.99
2017-11-28T11:37:50.048Z,6.28
2017-11-28T11:39:00.374Z,6.62
2017-11-28T11:40:10.884Z,7.06
2017-11-28T11:41:21.250Z,7.33
2017-11-28T11:42:31.722Z,7.76
2017-11-28T11:43:42.562Z,8.15
2017-11-28T11:44:53.898Z,8.55
2017-11-28T11:46:04.308Z,8.86
2017-11-28T11:47:14.692Z,9.07
2017-11-28T11:48:25.273Z,9.44
2017-11-28T11:49:35.910Z,9.62
2017-11-28T11:50:46.168Z,9.91
2017-11-28T11:51:56.289Z,9.81
2017-11-28T11:53:06.590Z,9.52
2017-11-28T11:54:17.028Z,9.38
2017-11-28T11:55:27.350Z,9.25
2017-11-28T11:56:37.679Z,8.93
2017-11-28T11:58:02.623Z,8.63
2017-11-28T11:59:12.909Z,8.31
2017-11-28T12:00:23.523Z,8.09
2017-11-28T12:01:33.581Z,7.94
2017-11-28T12:03:15.731Z,7.76
2017-11-28T12:04:26.139Z,7.52
2017-11-28T12:05:36.474Z,7.26
2017-11-28T12:06:46.389Z,7.21
2017-11-28T12:07:56.940Z,7.05
2017-11-28T12:09:06.988Z,6.9
2017-11-28T12:10:17.269Z,6.79
2017-11-28T12:11:27.613Z,6.79
2017-11-28T12:12:38.020Z,6.63
2017-11-28T12:13:48.042Z,6.59
2017-11-28T12:14:58.337Z,6.44
2017-11-28T12:16:08.428Z,6.52
2017-11-28T12:17:18.727Z,6.48
2017-11-28T12:18:28.807Z,6.52
2017-11-28T12:19:39.086Z,6.54
2017-11-28T12:20:49.384Z,6.48
2017-11-28T12:21:59.420Z,6.63
2017-11-28T12:23:09.705Z,6.53
2017-11-28T12:24:19.991Z,6.57
2017-11-28T12:25:30.529Z,6.62
2017-11-28T12:26:40.593Z,6.63
2017-11-28T12:27:51.011Z,6.67
2017-11-28T12:29:01.529Z,6.64
2017-11-28T12:30:11.676Z,6.63
2017-11-28T12:31:37.389Z,6.56
2017-11-28T12:32:49.504Z,6.42
2017-11-28T12:34:00.907Z,6.56
2017-11-28T12:35:11.590Z,6.53
2017-11-28T12:36:21.926Z,6.45
2017-11-28T12:37:31.715Z,6.49
2017-11-28T12:38:42.153Z,6.49
2017-11-28T12:39:52.977Z,6.53
2017-11-28T12:41:03.448Z,6.48
2017-11-28T12:42:13.734Z,6.42
2017-11-28T12:43:24.341Z,6.49
2017-11-28T12:44:35.733Z,6.59
2017-11-28T12:45:46.220Z,6.49
2017-11-28T12:46:56.644Z,6.54
2017-11-28T12:48:07.919Z,6.49
2017-11-28T12:49:18.871Z,6.53
2017-11-28T12:50:29.528Z,6.54
2017-11-28T12:51:40.525Z,6.52
2017-11-28T12:52:50.752Z,6.49
2017-11-28T12:54:00.732Z,6.53
2017-11-28T12:55:11.306Z,6.54
2017-11-28T12:56:21.638Z,6.54
2017-11-28T12:57:31.285Z,6.49
2017-11-28T12:58:41.400Z,6.52
2017-11-28T12:59:52.605Z,6.56
2017-11-28T13:01:02.829Z,6.48
2017-11-28T13:02:13.674Z,6.52
2017-11-28T13:03:24.572Z,6.46
2017-11-28T13:04:35.116Z,6.52
2017-11-28T13:05:45.604Z,6.57
2017-11-28T13:06:55.875Z,6.44
2017-11-28T13:08:06.859Z,6.39
2017-11-28T13:09:17.437Z,6.31
2017-11-28T13:10:28.365Z,6.38
2017-11-28T13:11:38.341Z,6.34
2017-11-28T13:12:49.609Z,6.34
2017-11-28T13:13:59.927Z,6.27
2017-11-28T13:15:10.529Z,6.26
2017-11-28T13:16:21.058Z,6.21
2017-11-28T13:17:31.363Z,6.2
2017-11-28T13:18:41.787Z,6.21
2017-11-28T13:19:52.816Z,6.14
2017-11-28T13:21:03.185Z,6.11
2017-11-28T13:22:13.757Z,6.11
2017-11-28T13:23:24.452Z,6.06
2017-11-28T13:24:34.954Z,6.03
2017-11-28T13:25:45.278Z,6.16
2017-11-28T13:26:54.840Z,6.16
2017-11-28T13:28:05.166Z,6.16
2017-11-28T13:29:15.779Z,6.27
2017-11-28T13:30:26.091Z,6.27
2017-11-28T13:31:36.618Z,6.27
2017-11-28T13:32:46.889Z,6.35
2017-11-28T13:33:57.438Z,6.48
2017-11-28T13:35:08.145Z,6.42
2017-11-28T13:36:18.446Z,6.3
2017-11-28T13:37:29.840Z,6.26
2017-11-28T13:38:40.379Z,6.41
2017-11-28T13:39:50.689Z,6.41
2017-11-28T13:41:01.033Z,6.46
2017-11-28T13:42:10.905Z,6.46
2017-11-28T13:43:21.327Z,6.45
2017-11-28T13:44:31.680Z,6.44
2017-11-28T13:45:42.288Z,6.42
2017-11-28T13:46:52.385Z,6.36
2017-11-28T13:48:02.238Z,6.45
2017-11-28T13:49:12.357Z,6.45
2017-11-28T13:50:22.740Z,6.3
2017-11-28T13:51:33.278Z,6.35
2017-11-28T13:52:43.318Z,6.28
2017-11-28T13:53:53.699Z,6.2
2017-11-28T13:55:04.060Z,6.16
2017-11-28T13:56:14.380Z,6.06
2017-11-28T13:57:24.501Z,6.01
2017-11-28T13:58:34.154Z,5.99
2017-11-28T13:59:44.445Z,5.94
2017-11-28T14:00:54.765Z,5.86
2017-11-28T14:02:05.761Z,5.86
2017-11-28T14:03:16.504Z,5.72
2017-11-28T14:04:26.819Z,5.79
2017-11-28T14:05:37.071Z,5.71
2017-11-28T14:06:47.367Z,5.74
2017-11-28T14:07:57.766Z,5.69
2017-11-28T14:09:08.253Z,5.77
2017-11-28T14:10:18.751Z,5.74
2017-11-28T14:11:29.096Z,5.72
2017-11-28T14:12:39.421Z,5.67
2017-11-28T14:13:49.930Z,5.68
2017-11-28T14:15:00.211Z,5.67
2017-11-28T14:16:10.143Z,5.54
2017-11-28T14:17:21.338Z,5.54
2017-11-28T14:18:32.426Z,5.58
2017-11-28T14:19:42.519Z,5.59
2017-11-28T14:20:52.737Z,5.54
2017-11-28T14:22:02.815Z,5.56
2017-11-28T14:23:13.053Z,5.51
2017-11-28T14:24:23.643Z,5.59
2017-11-28T14:25:33.977Z,5.54
2017-11-28T14:26:44.479Z,5.58
2017-11-28T14:27:55.037Z,5.58
2017-11-28T14:29:05.424Z,5.67
2017-11-28T14:30:15.947Z,5.69
2017-11-28T14:31:26.513Z,5.68
2017-11-28T14:32:36.608Z,5.68
2017-11-28T14:33:46.982Z,5.53
2017-11-28T14:34:57.281Z,5.59
2017-11-28T14:36:07.694Z,5.59
2017-11-28T14:37:17.961Z,5.53
2017-11-28T14:38:27.427Z,5.54
2017-11-28T14:39:38.930Z,5.44
2017-11-28T14:40:49.465Z,5.43
2017-11-28T14:41:59.909Z,5.43
2017-11-28T14:43:10.921Z,5.44
2017-11-28T14:44:20.971Z,5.43
2017-11-28T14:45:31.023Z,5.38
2017-11-28T14:46:41.386Z,5.32
2017-11-28T14:47:52.172Z,5.32
2017-11-28T14:49:02.465Z,5.31
2017-11-28T14:50:12.412Z,5.26
2017-11-28T14:51:22.972Z,5.28
2017-11-28T14:52:33.414Z,5.29
2017-11-28T14:53:43.709Z,5.31
2017-11-28T14:54:53.850Z,5.33
2017-11-28T14:56:04.491Z,5.26
2017-11-28T14:57:15.094Z,5.21
2017-11-28T14:58:25.638Z,5.29
2017-11-28T14:59:36.740Z,5.29
2017-11-28T15:00:47.296Z,5.26
2017-11-28T15:01:57.897Z,5.25
2017-11-28T15:03:08.303Z,5.17
2017-11-28T15:04:19.115Z,5.21
2017-11-28T15:05:29.389Z,5.24
2017-11-28T15:06:40.068Z,5.11
2017-11-28T15:07:50.868Z,5.21
2017-11-28T15:09:01.442Z,5.24
2017-11-28T15:10:11.606Z,5.18
2017-11-28T15:11:21.805Z,5.22
2017-11-28T15:12:32.123Z,5.18
2017-11-28T15:13:42.687Z,5.11
2017-11-28T15:14:53.236Z,5.18
2017-11-28T15:16:03.243Z,5.11
2017-11-28T15:17:13.655Z,5.08
2017-11-28T15:18:24.359Z,5.11
2017-11-28T15:19:34.722Z,5.13
2017-11-28T15:20:45.373Z,5.16
2017-11-28T15:21:55.690Z,5.13
2017-11-28T15:23:05.988Z,5.13
2017-11-28T15:24:17.184Z,5.07
2017-11-28T15:25:27.702Z,5
2017-11-28T15:26:37.810Z,4.99
2017-11-28T15:27:48.249Z,4.95
2017-11-28T15:28:58.265Z,5.04
2017-11-28T15:30:09.284Z,4.92
2017-11-28T15:31:19.746Z,4.99
2017-11-28T15:32:30.114Z,4.93
2017-11-28T15:33:41.265Z,4.99
2017-11-28T15:34:52.267Z,4.92
2017-11-28T15:36:03.441Z,4.88
2017-11-28T15:37:14.203Z,4.85
2017-11-28T15:38:24.717Z,4.92
2017-11-28T15:39:35.511Z,4.98
2017-11-28T15:40:46.170Z,4.93